Terminal Aerodrome Forecast
Issued by NWS

Home | Current Version | Previous Version | Graphics & Text | Print | Product List | Glossary On
Versions: 1 2 3 4 5 6 7 8 9 10 11 12 13 14 15 16 17 18 19 20 21 22 23 24
000
FTUS43 KGRB 211100
TAFMTW
TAF
KMTW 211134Z 2112/2212 31010KT P6SM SCT012 BKN035
      TEMPO 2112/2116 -SHRA BKN012
     FM211600 32010G20KT P6SM BKN012 BKN030
     FM211800 34014G20KT P6SM BKN030
     FM212000 36012G18KT P6SM SCT035
     FM212300 36008KT P6SM SKC
     FM220300 34004KT P6SM SKC=

USA.gov is the U.S. government's official web portal to all federal, state and local government web resources and services.